NCE weather

Nice-Côte d'Azur Airport
Nice, Provence-Alpes-Côte-d'Azur, France

Public forecast

Using degrees Celsius for public forecast. Weather courtesy of forecast.io.

METAR (pilot weather report)

Retrieved 2019/03/27 02:00 UTC (2 minutes ago):

LFMN 270200Z 33012KT CAVOK 09/M10 Q1021 NOSIG

TAF (pilot weather forecast)

Retrieved 2019/03/26 21:24 UTC (5 hours ago):

TAF LFMN 262000Z 2621/2803 31006KT CAVOK BECMG 2710/2712 16010KT BECMG 2717/2719 34010KT